sensor_id;sensor_type;location;lat;lon;timestamp;P1;durP1;ratioP1;P2;durP2;ratioP2
40459;SDS011;26164;51.138;16.952;2023-02-28T00:01:26;48.38;;;19.30;;
40459;SDS011;26164;51.138;16.952;2023-02-28T00:03:53;47.42;;;17.98;;
40459;SDS011;26164;51.138;16.952;2023-02-28T00:06:18;44.00;;;16.98;;
40459;SDS011;26164;51.138;16.952;2023-02-28T00:08:45;51.90;;;19.30;;
40459;SDS011;26164;51.138;16.952;2023-02-28T00:11:12;52.78;;;20.58;;
40459;SDS011;26164;51.138;16.952;2023-02-28T00:13:41;49.83;;;20.75;;
40459;SDS011;26164;51.138;16.952;2023-02-28T00:16:13;49.58;;;19.52;;
40459;SDS011;26164;51.138;16.952;2023-02-28T00:18:46;54.97;;;19.85;;
40459;SDS011;26164;51.138;16.952;2023-02-28T00:21:18;47.85;;;20.42;;
40459;SDS011;26164;51.138;16.952;2023-02-28T00:23:45;53.03;;;20.45;;
40459;SDS011;26164;51.138;16.952;2023-02-28T00:26:11;46.67;;;19.05;;
40459;SDS011;26164;51.138;16.952;2023-02-28T00:28:40;50.63;;;20.27;;
40459;SDS011;26164;51.138;16.952;2023-02-28T00:31:06;57.67;;;21.08;;
40459;SDS011;26164;51.138;16.952;2023-02-28T00:33:32;59.35;;;21.10;;
40459;SDS011;26164;51.138;16.952;2023-02-28T00:36:05;52.38;;;19.80;;
40459;SDS011;26164;51.138;16.952;2023-02-28T00:38:35;64.30;;;21.42;;
40459;SDS011;26164;51.138;16.952;2023-02-28T00:41:02;51.10;;;19.90;;
40459;SDS011;26164;51.138;16.952;2023-02-28T00:43:31;65.72;;;24.10;;
40459;SDS011;26164;51.138;16.952;2023-02-28T00:46:00;56.50;;;22.00;;
40459;SDS011;26164;51.138;16.952;2023-02-28T00:48:27;50.35;;;20.95;;
40459;SDS011;26164;51.138;16.952;2023-02-28T00:50:53;62.83;;;23.40;;
40459;SDS011;26164;51.138;16.952;2023-02-28T00:53:19;53.70;;;21.23;;
40459;SDS011;26164;51.138;16.952;2023-02-28T00:55:47;58.42;;;21.90;;
40459;SDS011;26164;51.138;16.952;2023-02-28T00:58:14;58.90;;;23.25;;
40459;SDS011;26164;51.138;16.952;2023-02-28T01:00:40;58.95;;;22.38;;
40459;SDS011;26164;51.138;16.952;2023-02-28T01:03:06;63.58;;;22.40;;
40459;SDS011;26164;51.138;16.952;2023-02-28T01:05:35;68.50;;;24.23;;
40459;SDS011;26164;51.138;16.952;2023-02-28T01:08:02;61.00;;;23.33;;
40459;SDS011;26164;51.138;16.952;2023-02-28T01:10:28;62.75;;;23.73;;
40459;SDS011;26164;51.138;16.952;2023-02-28T01:12:57;53.58;;;20.15;;
40459;SDS011;26164;51.138;16.952;2023-02-28T01:15:23;58.88;;;22.60;;
40459;SDS011;26164;51.138;16.952;2023-02-28T01:17:50;61.47;;;23.42;;
40459;SDS011;26164;51.138;16.952;2023-02-28T01:20:16;64.10;;;24.05;;
40459;SDS011;26164;51.138;16.952;2023-02-28T01:22:42;57.40;;;23.50;;
40459;SDS011;26164;51.138;16.952;2023-02-28T01:25:09;52.17;;;21.80;;
40459;SDS011;26164;51.138;16.952;2023-02-28T01:27:35;59.35;;;24.15;;
40459;SDS011;26164;51.138;16.952;2023-02-28T01:30:02;64.40;;;24.02;;
40459;SDS011;26164;51.138;16.952;2023-02-28T01:32:28;59.42;;;23.13;;
40459;SDS011;26164;51.138;16.952;2023-02-28T01:34:54;57.47;;;22.77;;
40459;SDS011;26164;51.138;16.952;2023-02-28T01:37:22;60.42;;;24.58;;
40459;SDS011;26164;51.138;16.952;2023-02-28T01:39:48;55.05;;;22.13;;
40459;SDS011;26164;51.138;16.952;2023-02-28T01:42:14;61.85;;;21.67;;
40459;SDS011;26164;51.138;16.952;2023-02-28T01:47:30;52.78;;;20.50;;
40459;SDS011;26164;51.138;16.952;2023-02-28T01:50:00;50.72;;;20.95;;
40459;SDS011;26164;51.138;16.952;2023-02-28T01:52:30;54.42;;;20.85;;
40459;SDS011;26164;51.138;16.952;2023-02-28T01:54:58;47.92;;;19.40;;
40459;SDS011;26164;51.138;16.952;2023-02-28T01:57:29;52.30;;;19.52;;
40459;SDS011;26164;51.138;16.952;2023-02-28T02:00:07;53.47;;;21.20;;
40459;SDS011;26164;51.138;16.952;2023-02-28T02:02:38;52.80;;;21.10;;
40459;SDS011;26164;51.138;16.952;2023-02-28T02:05:12;49.13;;;20.15;;
40459;SDS011;26164;51.138;16.952;2023-02-28T02:07:41;47.97;;;19.80;;
40459;SDS011;26164;51.138;16.952;2023-02-28T02:10:26;52.35;;;19.77;;
40459;SDS011;26164;51.138;16.952;2023-02-28T02:15:54;48.28;;;19.35;;
40459;SDS011;26164;51.138;16.952;2023-02-28T02:18:33;43.72;;;17.50;;
40459;SDS011;26164;51.138;16.952;2023-02-28T02:37:36;34.05;;;14.63;;
40459;SDS011;26164;51.138;16.952;2023-02-28T02:40:12;48.35;;;18.63;;
40459;SDS011;26164;51.138;16.952;2023-02-28T02:45:46;50.22;;;19.80;;
40459;SDS011;26164;51.138;16.952;2023-02-28T02:48:36;51.83;;;20.50;;
40459;SDS011;26164;51.138;16.952;2023-02-28T02:51:10;51.30;;;19.23;;
40459;SDS011;26164;51.138;16.952;2023-02-28T02:53:42;47.72;;;19.63;;
40459;SDS011;26164;51.138;16.952;2023-02-28T02:56:19;45.40;;;19.42;;
40459;SDS011;26164;51.138;16.952;2023-02-28T02:58:49;49.95;;;20.05;;
40459;SDS011;26164;51.138;16.952;2023-02-28T03:01:18;49.45;;;20.33;;
40459;SDS011;26164;51.138;16.952;2023-02-28T03:03:56;53.00;;;20.70;;
40459;SDS011;26164;51.138;16.952;2023-02-28T03:06:25;51.40;;;20.90;;
40459;SDS011;26164;51.138;16.952;2023-02-28T03:08:51;44.38;;;16.98;;
40459;SDS011;26164;51.138;16.952;2023-02-28T03:11:17;48.88;;;21.65;;
40459;SDS011;26164;51.138;16.952;2023-02-28T03:13:54;56.17;;;22.25;;
40459;SDS011;26164;51.138;16.952;2023-02-28T03:20:00;50.90;;;21.42;;
40459;SDS011;26164;51.138;16.952;2023-02-28T03:22:24;55.05;;;22.73;;
40459;SDS011;26164;51.138;16.952;2023-02-28T03:27:42;52.03;;;21.88;;
40459;SDS011;26164;51.138;16.952;2023-02-28T03:30:24;47.83;;;19.98;;
40459;SDS011;26164;51.138;16.952;2023-02-28T03:32:59;61.47;;;22.17;;
40459;SDS011;26164;51.138;16.952;2023-02-28T03:35:31;54.78;;;21.25;;
40459;SDS011;26164;51.138;16.952;2023-02-28T03:41:06;53.72;;;21.00;;
40459;SDS011;26164;51.138;16.952;2023-02-28T03:43:40;53.55;;;22.35;;
40459;SDS011;26164;51.138;16.952;2023-02-28T03:46:12;50.88;;;21.23;;
40459;SDS011;26164;51.138;16.952;2023-02-28T03:48:44;47.20;;;20.05;;
40459;SDS011;26164;51.138;16.952;2023-02-28T03:51:15;53.75;;;21.67;;
40459;SDS011;26164;51.138;16.952;2023-02-28T03:53:46;48.97;;;21.52;;
40459;SDS011;26164;51.138;16.952;2023-02-28T03:56:29;53.20;;;20.17;;
40459;SDS011;26164;51.138;16.952;2023-02-28T03:59:17;53.70;;;21.77;;
40459;SDS011;26164;51.138;16.952;2023-02-28T04:01:49;51.00;;;20.75;;
40459;SDS011;26164;51.138;16.952;2023-02-28T04:04:16;51.30;;;20.48;;
40459;SDS011;26164;51.138;16.952;2023-02-28T04:06:43;44.15;;;18.73;;
40459;SDS011;26164;51.138;16.952;2023-02-28T04:09:11;52.67;;;21.85;;
40459;SDS011;26164;51.138;16.952;2023-02-28T04:11:40;53.72;;;21.58;;
40459;SDS011;26164;51.138;16.952;2023-02-28T04:14:08;55.03;;;22.83;;
40459;SDS011;26164;51.138;16.952;2023-02-28T04:16:36;56.92;;;23.98;;
40459;SDS011;26164;51.138;16.952;2023-02-28T04:19:04;53.85;;;23.00;;
40459;SDS011;26164;51.138;16.952;2023-02-28T04:21:35;52.28;;;21.95;;
40459;SDS011;26164;51.138;16.952;2023-02-28T04:24:09;59.40;;;22.92;;
40459;SDS011;26164;51.138;16.952;2023-02-28T04:26:40;53.38;;;22.90;;
40459;SDS011;26164;51.138;16.952;2023-02-28T04:29:09;49.10;;;22.05;;
40459;SDS011;26164;51.138;16.952;2023-02-28T04:31:37;51.75;;;22.63;;
40459;SDS011;26164;51.138;16.952;2023-02-28T04:34:03;50.90;;;21.40;;
40459;SDS011;26164;51.138;16.952;2023-02-28T04:36:29;47.40;;;20.52;;
40459;SDS011;26164;51.138;16.952;2023-02-28T04:38:55;46.60;;;20.92;;
40459;SDS011;26164;51.138;16.952;2023-02-28T04:41:21;56.20;;;22.92;;
40459;SDS011;26164;51.138;16.952;2023-02-28T04:43:48;52.40;;;21.25;;
40459;SDS011;26164;51.138;16.952;2023-02-28T04:46:14;48.63;;;21.60;;
40459;SDS011;26164;51.138;16.952;2023-02-28T04:48:41;47.40;;;20.52;;
40459;SDS011;26164;51.138;16.952;2023-02-28T04:51:07;49.63;;;19.88;;
40459;SDS011;26164;51.138;16.952;2023-02-28T04:53:36;51.67;;;20.75;;
40459;SDS011;26164;51.138;16.952;2023-02-28T04:56:04;47.47;;;20.42;;
40459;SDS011;26164;51.138;16.952;2023-02-28T04:58:32;49.25;;;22.05;;
40459;SDS011;26164;51.138;16.952;2023-02-28T05:01:05;55.28;;;21.70;;
40459;SDS011;26164;51.138;16.952;2023-02-28T05:03:43;52.05;;;21.10;;
40459;SDS011;26164;51.138;16.952;2023-02-28T05:06:09;45.53;;;21.35;;
40459;SDS011;26164;51.138;16.952;2023-02-28T05:08:37;50.40;;;21.50;;
40459;SDS011;26164;51.138;16.952;2023-02-28T05:11:03;51.40;;;20.73;;
40459;SDS011;26164;51.138;16.952;2023-02-28T05:13:32;50.55;;;19.65;;
40459;SDS011;26164;51.138;16.952;2023-02-28T05:15:59;46.90;;;21.08;;
40459;SDS011;26164;51.138;16.952;2023-02-28T05:18:25;43.67;;;20.55;;
40459;SDS011;26164;51.138;16.952;2023-02-28T05:20:51;42.33;;;19.73;;
40459;SDS011;26164;51.138;16.952;2023-02-28T05:23:18;45.47;;;20.77;;
40459;SDS011;26164;51.138;16.952;2023-02-28T05:25:47;44.25;;;19.00;;
40459;SDS011;26164;51.138;16.952;2023-02-28T05:28:22;40.35;;;18.70;;
40459;SDS011;26164;51.138;16.952;2023-02-28T05:30:48;46.92;;;19.45;;
40459;SDS011;26164;51.138;16.952;2023-02-28T05:37:03;44.47;;;19.58;;
40459;SDS011;26164;51.138;16.952;2023-02-28T05:40:07;45.28;;;19.95;;
40459;SDS011;26164;51.138;16.952;2023-02-28T06:27:06;50.15;;;20.30;;
40459;SDS011;26164;51.138;16.952;2023-02-28T06:29:33;50.45;;;20.38;;
40459;SDS011;26164;51.138;16.952;2023-02-28T06:32:00;41.60;;;18.85;;
40459;SDS011;26164;51.138;16.952;2023-02-28T06:34:27;49.83;;;20.10;;
40459;SDS011;26164;51.138;16.952;2023-02-28T06:36:53;47.13;;;20.48;;
40459;SDS011;26164;51.138;16.952;2023-02-28T06:39:22;45.58;;;19.60;;
40459;SDS011;26164;51.138;16.952;2023-02-28T06:41:48;51.85;;;21.23;;
40459;SDS011;26164;51.138;16.952;2023-02-28T06:44:15;49.85;;;21.27;;
40459;SDS011;26164;51.138;16.952;2023-02-28T06:46:43;48.55;;;19.98;;
40459;SDS011;26164;51.138;16.952;2023-02-28T06:49:10;39.95;;;18.92;;
40459;SDS011;26164;51.138;16.952;2023-02-28T06:51:38;45.20;;;20.48;;
40459;SDS011;26164;51.138;16.952;2023-02-28T06:54:05;49.17;;;19.55;;
40459;SDS011;26164;51.138;16.952;2023-02-28T06:56:34;42.97;;;19.27;;
40459;SDS011;26164;51.138;16.952;2023-02-28T06:59:01;40.08;;;19.20;;
40459;SDS011;26164;51.138;16.952;2023-02-28T07:01:26;46.25;;;21.25;;
40459;SDS011;26164;51.138;16.952;2023-02-28T07:03:54;45.33;;;19.45;;
40459;SDS011;26164;51.138;16.952;2023-02-28T07:06:20;44.22;;;19.58;;
40459;SDS011;26164;51.138;16.952;2023-02-28T07:08:49;56.72;;;21.17;;
40459;SDS011;26164;51.138;16.952;2023-02-28T07:11:16;48.88;;;18.80;;
40459;SDS011;26164;51.138;16.952;2023-02-28T07:13:42;44.88;;;19.48;;
40459;SDS011;26164;51.138;16.952;2023-02-28T07:16:10;41.08;;;19.63;;
40459;SDS011;26164;51.138;16.952;2023-02-28T07:18:38;42.72;;;19.60;;
40459;SDS011;26164;51.138;16.952;2023-02-28T07:21:04;45.05;;;19.98;;
40459;SDS011;26164;51.138;16.952;2023-02-28T07:23:32;44.05;;;17.27;;
40459;SDS011;26164;51.138;16.952;2023-02-28T07:25:58;38.58;;;17.15;;
40459;SDS011;26164;51.138;16.952;2023-02-28T07:28:25;39.80;;;16.80;;
40459;SDS011;26164;51.138;16.952;2023-02-28T07:30:52;39.25;;;16.77;;
40459;SDS011;26164;51.138;16.952;2023-02-28T07:33:18;32.13;;;16.30;;
40459;SDS011;26164;51.138;16.952;2023-02-28T07:35:44;33.05;;;16.27;;
40459;SDS011;26164;51.138;16.952;2023-02-28T07:38:10;29.95;;;15.32;;
40459;SDS011;26164;51.138;16.952;2023-02-28T07:40:36;29.45;;;14.93;;
40459;SDS011;26164;51.138;16.952;2023-02-28T07:43:03;31.90;;;15.05;;
40459;SDS011;26164;51.138;16.952;2023-02-28T07:45:29;36.03;;;15.50;;
40459;SDS011;26164;51.138;16.952;2023-02-28T07:48:11;29.02;;;14.73;;
40459;SDS011;26164;51.138;16.952;2023-02-28T07:50:38;34.75;;;15.02;;
40459;SDS011;26164;51.138;16.952;2023-02-28T07:53:06;32.85;;;15.05;;
40459;SDS011;26164;51.138;16.952;2023-02-28T07:55:33;26.17;;;13.50;;
40459;SDS011;26164;51.138;16.952;2023-02-28T07:57:59;29.33;;;13.35;;
40459;SDS011;26164;51.138;16.952;2023-02-28T08:00:26;21.05;;;12.38;;
40459;SDS011;26164;51.138;16.952;2023-02-28T08:02:51;23.70;;;12.35;;
40459;SDS011;26164;51.138;16.952;2023-02-28T08:05:23;22.65;;;12.55;;
40459;SDS011;26164;51.138;16.952;2023-02-28T08:07:49;19.60;;;11.90;;
40459;SDS011;26164;51.138;16.952;2023-02-28T08:10:18;23.40;;;12.70;;
40459;SDS011;26164;51.138;16.952;2023-02-28T08:12:44;21.55;;;12.07;;
40459;SDS011;26164;51.138;16.952;2023-02-28T08:15:10;20.55;;;11.35;;
40459;SDS011;26164;51.138;16.952;2023-02-28T08:17:36;22.00;;;11.88;;
40459;SDS011;26164;51.138;16.952;2023-02-28T08:20:02;28.70;;;12.77;;
40459;SDS011;26164;51.138;16.952;2023-02-28T08:22:29;26.10;;;11.82;;
40459;SDS011;26164;51.138;16.952;2023-02-28T08:24:55;21.98;;;11.45;;
40459;SDS011;26164;51.138;16.952;2023-02-28T08:27:22;22.10;;;11.30;;
40459;SDS011;26164;51.138;16.952;2023-02-28T08:29:49;16.98;;;9.50;;
40459;SDS011;26164;51.138;16.952;2023-02-28T08:32:15;17.55;;;9.27;;
40459;SDS011;26164;51.138;16.952;2023-02-28T08:34:41;17.00;;;9.70;;
40459;SDS011;26164;51.138;16.952;2023-02-28T08:37:06;17.00;;;6.97;;
40459;SDS011;26164;51.138;16.952;2023-02-28T08:39:36;13.57;;;6.10;;
40459;SDS011;26164;51.138;16.952;2023-02-28T08:42:02;13.05;;;5.50;;
40459;SDS011;26164;51.138;16.952;2023-02-28T08:44:30;13.60;;;6.78;;
40459;SDS011;26164;51.138;16.952;2023-02-28T08:46:57;10.93;;;5.03;;
40459;SDS011;26164;51.138;16.952;2023-02-28T08:49:24;10.68;;;5.93;;
40459;SDS011;26164;51.138;16.952;2023-02-28T08:51:51;11.27;;;5.40;;
40459;SDS011;26164;51.138;16.952;2023-02-28T08:54:18;12.65;;;6.10;;
40459;SDS011;26164;51.138;16.952;2023-02-28T08:56:45;12.25;;;6.22;;
40459;SDS011;26164;51.138;16.952;2023-02-28T08:59:13;13.38;;;6.40;;
40459;SDS011;26164;51.138;16.952;2023-02-28T09:01:39;14.15;;;6.35;;
40459;SDS011;26164;51.138;16.952;2023-02-28T09:04:07;15.13;;;6.15;;
40459;SDS011;26164;51.138;16.952;2023-02-28T09:06:35;13.77;;;5.78;;
40459;SDS011;26164;51.138;16.952;2023-02-28T09:09:01;9.55;;;5.57;;
40459;SDS011;26164;51.138;16.952;2023-02-28T09:11:29;12.00;;;5.57;;
40459;SDS011;26164;51.138;16.952;2023-02-28T09:13:56;12.52;;;5.18;;
40459;SDS011;26164;51.138;16.952;2023-02-28T09:16:24;13.40;;;5.10;;
40459;SDS011;26164;51.138;16.952;2023-02-28T09:18:50;11.65;;;5.00;;
40459;SDS011;26164;51.138;16.952;2023-02-28T09:21:17;12.57;;;5.28;;
40459;SDS011;26164;51.138;16.952;2023-02-28T09:23:44;9.48;;;5.00;;
40459;SDS011;26164;51.138;16.952;2023-02-28T09:26:15;11.40;;;5.65;;
40459;SDS011;26164;51.138;16.952;2023-02-28T09:28:45;11.45;;;5.93;;
40459;SDS011;26164;51.138;16.952;2023-02-28T09:31:11;12.48;;;6.07;;
40459;SDS011;26164;51.138;16.952;2023-02-28T09:33:46;12.20;;;6.00;;
40459;SDS011;26164;51.138;16.952;2023-02-28T09:36:16;11.90;;;6.35;;
40459;SDS011;26164;51.138;16.952;2023-02-28T09:38:43;10.90;;;5.43;;
40459;SDS011;26164;51.138;16.952;2023-02-28T09:41:16;14.65;;;5.55;;
40459;SDS011;26164;51.138;16.952;2023-02-28T09:43:46;10.77;;;5.18;;
40459;SDS011;26164;51.138;16.952;2023-02-28T09:46:34;8.77;;;4.70;;
40459;SDS011;26164;51.138;16.952;2023-02-28T09:49:07;10.05;;;4.95;;
40459;SDS011;26164;51.138;16.952;2023-02-28T09:52:01;10.95;;;5.03;;
40459;SDS011;26164;51.138;16.952;2023-02-28T09:54:28;11.57;;;5.35;;
40459;SDS011;26164;51.138;16.952;2023-02-28T09:57:07;10.75;;;5.32;;
40459;SDS011;26164;51.138;16.952;2023-02-28T09:59:48;9.88;;;5.40;;
40459;SDS011;26164;51.138;16.952;2023-02-28T10:05:08;11.10;;;5.88;;
40459;SDS011;26164;51.138;16.952;2023-02-28T10:07:49;10.05;;;5.22;;
40459;SDS011;26164;51.138;16.952;2023-02-28T10:10:41;10.32;;;5.00;;
40459;SDS011;26164;51.138;16.952;2023-02-28T10:16:02;14.93;;;6.68;;
40459;SDS011;26164;51.138;16.952;2023-02-28T10:21:26;13.45;;;6.60;;
40459;SDS011;26164;51.138;16.952;2023-02-28T10:26:45;13.20;;;6.28;;
40459;SDS011;26164;51.138;16.952;2023-02-28T10:29:13;13.88;;;6.80;;
40459;SDS011;26164;51.138;16.952;2023-02-28T10:31:40;15.35;;;6.25;;
40459;SDS011;26164;51.138;16.952;2023-02-28T10:34:06;13.45;;;6.97;;
40459;SDS011;26164;51.138;16.952;2023-02-28T10:36:38;15.38;;;8.02;;
40459;SDS011;26164;51.138;16.952;2023-02-28T10:42:20;18.98;;;7.15;;
40459;SDS011;26164;51.138;16.952;2023-02-28T10:53:33;20.23;;;8.18;;
40459;SDS011;26164;51.138;16.952;2023-02-28T10:56:03;15.43;;;8.05;;
40459;SDS011;26164;51.138;16.952;2023-02-28T11:01:16;19.63;;;7.60;;
40459;SDS011;26164;51.138;16.952;2023-02-28T11:03:46;17.75;;;7.30;;
40459;SDS011;26164;51.138;16.952;2023-02-28T11:06:22;13.00;;;7.35;;
40459;SDS011;26164;51.138;16.952;2023-02-28T11:08:59;15.02;;;7.28;;
40459;SDS011;26164;51.138;16.952;2023-02-28T11:11:45;16.70;;;7.93;;
40459;SDS011;26164;51.138;16.952;2023-02-28T11:14:20;15.15;;;6.93;;
40459;SDS011;26164;51.138;16.952;2023-02-28T11:16:49;17.00;;;7.80;;
40459;SDS011;26164;51.138;16.952;2023-02-28T11:19:44;14.00;;;7.40;;
40459;SDS011;26164;51.138;16.952;2023-02-28T11:22:16;12.90;;;7.00;;
40459;SDS011;26164;51.138;16.952;2023-02-28T11:24:46;16.17;;;7.40;;
40459;SDS011;26164;51.138;16.952;2023-02-28T11:29:58;13.35;;;6.88;;
40459;SDS011;26164;51.138;16.952;2023-02-28T11:32:28;16.10;;;7.68;;
40459;SDS011;26164;51.138;16.952;2023-02-28T11:35:17;15.48;;;7.03;;
40459;SDS011;26164;51.138;16.952;2023-02-28T11:37:53;14.32;;;6.05;;
40459;SDS011;26164;51.138;16.952;2023-02-28T11:40:28;13.63;;;7.10;;
40459;SDS011;26164;51.138;16.952;2023-02-28T11:43:05;15.13;;;6.63;;
40459;SDS011;26164;51.138;16.952;2023-02-28T11:45:46;14.35;;;7.20;;
40459;SDS011;26164;51.138;16.952;2023-02-28T11:54:01;14.57;;;7.82;;
40459;SDS011;26164;51.138;16.952;2023-02-28T11:56:48;14.90;;;6.68;;
40459;SDS011;26164;51.138;16.952;2023-02-28T11:59:39;13.50;;;6.75;;
40459;SDS011;26164;51.138;16.952;2023-02-28T12:05:16;14.32;;;7.55;;
40459;SDS011;26164;51.138;16.952;2023-02-28T12:27:21;18.92;;;8.52;;
40459;SDS011;26164;51.138;16.952;2023-02-28T12:29:56;15.88;;;8.85;;
40459;SDS011;26164;51.138;16.952;2023-02-28T12:32:31;18.88;;;9.63;;
40459;SDS011;26164;51.138;16.952;2023-02-28T12:40:11;16.23;;;8.40;;
40459;SDS011;26164;51.138;16.952;2023-02-28T12:42:42;16.33;;;8.60;;
40459;SDS011;26164;51.138;16.952;2023-02-28T12:45:15;15.55;;;8.48;;
40459;SDS011;26164;51.138;16.952;2023-02-28T12:47:52;16.05;;;8.45;;
40459;SDS011;26164;51.138;16.952;2023-02-28T12:50:34;18.42;;;8.77;;
40459;SDS011;26164;51.138;16.952;2023-02-28T12:58:43;17.02;;;8.50;;
40459;SDS011;26164;51.138;16.952;2023-02-28T13:07:17;16.17;;;8.20;;
40459;SDS011;26164;51.138;16.952;2023-02-28T13:10:05;18.08;;;8.45;;
40459;SDS011;26164;51.138;16.952;2023-02-28T13:12:41;17.27;;;8.55;;
40459;SDS011;26164;51.138;16.952;2023-02-28T13:15:20;15.60;;;8.00;;
40459;SDS011;26164;51.138;16.952;2023-02-28T13:17:52;18.05;;;8.48;;
40459;SDS011;26164;51.138;16.952;2023-02-28T13:20:28;17.50;;;8.48;;
40459;SDS011;26164;51.138;16.952;2023-02-28T13:23:05;18.88;;;8.15;;
40459;SDS011;26164;51.138;16.952;2023-02-28T13:34:34;18.23;;;8.38;;
40459;SDS011;26164;51.138;16.952;2023-02-28T13:39:53;17.50;;;7.95;;
40459;SDS011;26164;51.138;16.952;2023-02-28T14:01:45;15.82;;;7.30;;
40459;SDS011;26164;51.138;16.952;2023-02-28T14:04:46;15.30;;;7.53;;
40459;SDS011;26164;51.138;16.952;2023-02-28T14:10:32;12.88;;;7.13;;
40459;SDS011;26164;51.138;16.952;2023-02-28T14:16:25;16.73;;;6.88;;
40459;SDS011;26164;51.138;16.952;2023-02-28T14:19:02;17.77;;;7.65;;
40459;SDS011;26164;51.138;16.952;2023-02-28T14:37:32;15.95;;;8.43;;
40459;SDS011;26164;51.138;16.952;2023-02-28T14:40:17;19.13;;;8.88;;
40459;SDS011;26164;51.138;16.952;2023-02-28T14:43:04;17.02;;;9.10;;
40459;SDS011;26164;51.138;16.952;2023-02-28T14:45:48;17.67;;;9.23;;
40459;SDS011;26164;51.138;16.952;2023-02-28T14:48:22;18.42;;;9.30;;
40459;SDS011;26164;51.138;16.952;2023-02-28T14:50:50;18.13;;;9.65;;
40459;SDS011;26164;51.138;16.952;2023-02-28T14:53:20;17.20;;;8.63;;
40459;SDS011;26164;51.138;16.952;2023-02-28T14:55:57;19.63;;;9.07;;
40459;SDS011;26164;51.138;16.952;2023-02-28T14:58:35;18.90;;;9.20;;
40459;SDS011;26164;51.138;16.952;2023-02-28T15:01:21;21.02;;;9.73;;
40459;SDS011;26164;51.138;16.952;2023-02-28T15:03:59;19.55;;;9.50;;
40459;SDS011;26164;51.138;16.952;2023-02-28T15:06:31;18.05;;;9.13;;
40459;SDS011;26164;51.138;16.952;2023-02-28T15:09:11;16.67;;;8.52;;
40459;SDS011;26164;51.138;16.952;2023-02-28T15:11:41;14.75;;;7.93;;
40459;SDS011;26164;51.138;16.952;2023-02-28T15:14:17;17.70;;;8.48;;
40459;SDS011;26164;51.138;16.952;2023-02-28T15:16:53;18.52;;;9.30;;
40459;SDS011;26164;51.138;16.952;2023-02-28T15:19:39;16.73;;;8.32;;
40459;SDS011;26164;51.138;16.952;2023-02-28T15:22:27;17.35;;;8.60;;
40459;SDS011;26164;51.138;16.952;2023-02-28T15:25:06;16.92;;;8.60;;
40459;SDS011;26164;51.138;16.952;2023-02-28T15:27:42;17.73;;;8.48;;
40459;SDS011;26164;51.138;16.952;2023-02-28T15:30:21;15.60;;;8.55;;
40459;SDS011;26164;51.138;16.952;2023-02-28T15:36:15;17.75;;;8.25;;
40459;SDS011;26164;51.138;16.952;2023-02-28T15:38:51;17.30;;;8.50;;
40459;SDS011;26164;51.138;16.952;2023-02-28T15:41:30;19.20;;;8.65;;
40459;SDS011;26164;51.138;16.952;2023-02-28T15:49:33;14.13;;;7.53;;
40459;SDS011;26164;51.138;16.952;2023-02-28T15:52:05;14.77;;;7.53;;
40459;SDS011;26164;51.138;16.952;2023-02-28T15:54:36;15.85;;;7.82;;
40459;SDS011;26164;51.138;16.952;2023-02-28T15:57:07;14.65;;;6.97;;
40459;SDS011;26164;51.138;16.952;2023-02-28T15:59:36;14.48;;;7.38;;
40459;SDS011;26164;51.138;16.952;2023-02-28T16:02:21;12.35;;;6.85;;
40459;SDS011;26164;51.138;16.952;2023-02-28T16:05:02;14.30;;;6.85;;
40459;SDS011;26164;51.138;16.952;2023-02-28T16:07:36;14.82;;;6.85;;
40459;SDS011;26164;51.138;16.952;2023-02-28T16:10:08;15.70;;;7.55;;
40459;SDS011;26164;51.138;16.952;2023-02-28T16:12:37;14.65;;;7.65;;
40459;SDS011;26164;51.138;16.952;2023-02-28T16:17:50;17.63;;;7.68;;
40459;SDS011;26164;51.138;16.952;2023-02-28T16:20:17;20.30;;;8.10;;
40459;SDS011;26164;51.138;16.952;2023-02-28T16:22:44;16.30;;;8.05;;
40459;SDS011;26164;51.138;16.952;2023-02-28T16:25:12;19.15;;;9.15;;
40459;SDS011;26164;51.138;16.952;2023-02-28T16:27:39;19.73;;;9.30;;
40459;SDS011;26164;51.138;16.952;2023-02-28T16:30:06;19.38;;;8.35;;
40459;SDS011;26164;51.138;16.952;2023-02-28T16:32:41;18.65;;;9.32;;
40459;SDS011;26164;51.138;16.952;2023-02-28T16:35:09;19.40;;;8.68;;
40459;SDS011;26164;51.138;16.952;2023-02-28T16:37:36;17.30;;;8.93;;
40459;SDS011;26164;51.138;16.952;2023-02-28T16:40:03;21.00;;;9.65;;
40459;SDS011;26164;51.138;16.952;2023-02-28T16:42:29;27.55;;;11.55;;
40459;SDS011;26164;51.138;16.952;2023-02-28T16:44:56;21.20;;;10.55;;
40459;SDS011;26164;51.138;16.952;2023-02-28T16:47:23;24.45;;;11.07;;
40459;SDS011;26164;51.138;16.952;2023-02-28T16:49:53;21.17;;;10.35;;
40459;SDS011;26164;51.138;16.952;2023-02-28T16:52:19;24.45;;;10.85;;
40459;SDS011;26164;51.138;16.952;2023-02-28T16:54:45;23.90;;;11.20;;
40459;SDS011;26164;51.138;16.952;2023-02-28T16:57:20;26.02;;;11.27;;
40459;SDS011;26164;51.138;16.952;2023-02-28T16:59:50;21.80;;;11.20;;
40459;SDS011;26164;51.138;16.952;2023-02-28T17:02:18;21.65;;;11.65;;
40459;SDS011;26164;51.138;16.952;2023-02-28T17:04:47;25.40;;;11.50;;
40459;SDS011;26164;51.138;16.952;2023-02-28T17:07:14;27.58;;;12.02;;
40459;SDS011;26164;51.138;16.952;2023-02-28T17:09:42;29.05;;;12.20;;
40459;SDS011;26164;51.138;16.952;2023-02-28T17:12:09;29.63;;;13.57;;
40459;SDS011;26164;51.138;16.952;2023-02-28T17:14:36;27.75;;;12.55;;
40459;SDS011;26164;51.138;16.952;2023-02-28T17:17:04;26.95;;;13.75;;
40459;SDS011;26164;51.138;16.952;2023-02-28T17:19:31;28.55;;;12.85;;
40459;SDS011;26164;51.138;16.952;2023-02-28T17:21:57;29.50;;;15.00;;
40459;SDS011;26164;51.138;16.952;2023-02-28T17:24:23;28.48;;;13.32;;
40459;SDS011;26164;51.138;16.952;2023-02-28T17:26:58;26.63;;;13.60;;
40459;SDS011;26164;51.138;16.952;2023-02-28T17:29:24;31.88;;;15.75;;
40459;SDS011;26164;51.138;16.952;2023-02-28T17:31:51;34.22;;;16.67;;
40459;SDS011;26164;51.138;16.952;2023-02-28T17:34:17;35.45;;;17.23;;
40459;SDS011;26164;51.138;16.952;2023-02-28T17:36:49;39.13;;;17.20;;
40459;SDS011;26164;51.138;16.952;2023-02-28T17:39:16;38.42;;;17.20;;
40459;SDS011;26164;51.138;16.952;2023-02-28T17:41:53;39.30;;;17.63;;
40459;SDS011;26164;51.138;16.952;2023-02-28T17:44:21;38.15;;;19.10;;
40459;SDS011;26164;51.138;16.952;2023-02-28T17:46:49;39.85;;;19.25;;
40459;SDS011;26164;51.138;16.952;2023-02-28T17:49:16;43.35;;;18.40;;
40459;SDS011;26164;51.138;16.952;2023-02-28T17:51:42;38.60;;;19.08;;
40459;SDS011;26164;51.138;16.952;2023-02-28T17:54:08;39.88;;;19.35;;
40459;SDS011;26164;51.138;16.952;2023-02-28T17:56:35;46.05;;;21.15;;
40459;SDS011;26164;51.138;16.952;2023-02-28T17:59:01;46.67;;;21.13;;
40459;SDS011;26164;51.138;16.952;2023-02-28T18:01:27;47.55;;;23.55;;
40459;SDS011;26164;51.138;16.952;2023-02-28T18:03:55;42.10;;;21.00;;
40459;SDS011;26164;51.138;16.952;2023-02-28T18:06:22;50.22;;;22.25;;
40459;SDS011;26164;51.138;16.952;2023-02-28T18:08:50;45.35;;;19.45;;
40459;SDS011;26164;51.138;16.952;2023-02-28T18:11:17;44.78;;;22.17;;
40459;SDS011;26164;51.138;16.952;2023-02-28T18:13:49;54.50;;;22.98;;
40459;SDS011;26164;51.138;16.952;2023-02-28T18:16:19;52.22;;;25.38;;